createdAt,value
2023-04-21T00:02:26.560Z,5.56
2023-04-21T00:06:28.048Z,5.43
2023-04-21T00:10:29.542Z,5.44
2023-04-21T00:14:31.009Z,5.51
2023-04-21T00:18:33.936Z,5.33
2023-04-21T00:22:35.406Z,5.39
2023-04-21T00:26:36.991Z,5.30
2023-04-21T00:30:38.556Z,5.25
2023-04-21T00:34:41.440Z,5.36
2023-04-21T00:38:42.864Z,5.19
2023-04-21T00:42:44.304Z,5.16
2023-04-21T00:46:45.830Z,5.08
2023-04-21T00:50:48.683Z,5.04
2023-04-21T00:54:50.369Z,5.03
2023-04-21T00:58:53.700Z,4.88
2023-04-21T01:02:55.898Z,4.85
2023-04-21T01:06:58.812Z,5.16
2023-04-21T01:11:00.243Z,5.11
2023-04-21T01:15:01.701Z,5.02
2023-04-21T01:19:03.141Z,5.06
2023-04-21T01:23:06.211Z,4.96
2023-04-21T01:27:12.119Z,4.81
2023-04-21T01:31:13.461Z,4.77
2023-04-21T01:35:14.887Z,4.74
2023-04-21T01:39:17.982Z,4.73
2023-04-21T01:43:23.375Z,4.70
2023-04-21T01:47:25.260Z,4.69
2023-04-21T01:51:27.243Z,4.70
2023-04-21T01:55:30.227Z,4.69
2023-04-21T01:59:31.678Z,4.67
2023-04-21T02:03:33.166Z,4.72
2023-04-21T02:07:34.759Z,4.73
2023-04-21T02:11:37.566Z,4.80
2023-04-21T02:15:39.048Z,4.74
2023-04-21T02:19:40.518Z,4.72
2023-04-21T02:23:41.963Z,4.69
2023-04-21T02:27:44.750Z,4.61
2023-04-21T02:31:57.878Z,4.39
2023-04-21T02:36:05.617Z,4.23
2023-04-21T02:40:08.409Z,4.22
2023-04-21T02:44:11.183Z,4.11
2023-04-21T02:48:12.703Z,4.06
2023-04-21T02:52:14.161Z,4.13
2023-04-21T02:56:15.597Z,4.07
2023-04-21T03:00:18.820Z,4.07
2023-04-21T03:04:20.397Z,3.97
2023-04-21T03:08:21.933Z,3.98
2023-04-21T03:12:23.368Z,4.01
2023-04-21T03:16:26.278Z,3.92
2023-04-21T03:20:27.754Z,3.94
2023-04-21T03:24:29.194Z,3.95
2023-04-21T03:28:30.641Z,3.94
2023-04-21T03:32:33.459Z,3.82
2023-04-21T03:36:34.915Z,3.70
2023-04-21T03:40:36.993Z,3.40
2023-04-21T03:44:38.637Z,3.35
2023-04-21T03:48:41.423Z,3.23
2023-04-21T03:52:42.891Z,3.25
2023-04-21T03:56:44.311Z,3.11
2023-04-21T04:00:45.791Z,3.07
2023-04-21T04:04:48.656Z,3.15
2023-04-21T04:08:50.203Z,3.12
2023-04-21T04:12:51.633Z,3.07
2023-04-21T04:16:53.114Z,3.19
2023-04-21T04:20:55.889Z,3.27
2023-04-21T04:24:57.324Z,3.37
2023-04-21T04:28:58.753Z,3.32
2023-04-21T04:33:00.240Z,3.32
2023-04-21T04:37:03.234Z,3.29
2023-04-21T04:41:04.860Z,3.24
2023-04-21T04:45:07.068Z,3.35
2023-04-21T04:49:08.497Z,3.46
2023-04-21T04:53:11.277Z,3.49
2023-04-21T04:57:12.711Z,3.63
2023-04-21T05:01:14.824Z,3.73
2023-04-21T05:05:16.479Z,3.88
2023-04-21T05:09:19.422Z,4.02
2023-04-21T05:13:20.856Z,4.08
2023-04-21T05:17:22.327Z,4.29
2023-04-21T05:21:24.625Z,4.37
2023-04-21T05:25:27.426Z,4.54
2023-04-21T05:29:29.122Z,4.75
2023-04-21T05:33:30.561Z,4.95
2023-04-21T05:37:32.064Z,5.33
2023-04-21T05:41:34.832Z,5.39
2023-04-21T05:45:39.341Z,5.61
2023-04-21T05:49:40.796Z,5.85
2023-04-21T05:53:43.235Z,5.86
2023-04-21T05:57:46.070Z,5.88
2023-04-21T06:01:47.504Z,6.07
2023-04-21T06:05:53.849Z,6.61
2023-04-21T06:09:55.324Z,7.16
2023-04-21T06:13:58.140Z,7.53
2023-04-21T06:17:59.682Z,7.89
2023-04-21T06:22:01.157Z,7.93
2023-04-21T06:26:03.902Z,8.20
2023-04-21T06:30:08.263Z,8.54
2023-04-21T06:34:09.717Z,8.87
2023-04-21T06:38:11.137Z,9.40
2023-04-21T06:42:12.634Z,9.59
2023-04-21T06:46:15.462Z,9.40
2023-04-21T06:50:17.072Z,9.68
2023-04-21T06:54:19.210Z,10.01
2023-04-21T06:58:21.461Z,10.49
2023-04-21T07:02:24.514Z,10.93
2023-04-21T07:06:26.683Z,11.02
2023-04-21T07:10:28.546Z,11.26
2023-04-21T07:14:30.005Z,11.42
2023-04-21T07:18:32.832Z,11.55
2023-04-21T07:22:34.316Z,11.77
2023-04-21T07:26:35.774Z,11.67
2023-04-21T07:30:37.507Z,11.65
2023-04-21T07:34:40.321Z,11.78
2023-04-21T07:38:41.763Z,11.95
2023-04-21T07:42:43.425Z,12.11
2023-04-21T07:46:45.052Z,12.52
2023-04-21T07:50:47.922Z,12.79
2023-04-21T07:54:49.796Z,12.73
2023-04-21T07:58:51.247Z,12.99
2023-04-21T08:02:53.842Z,13.24
2023-04-21T08:06:56.898Z,13.49
2023-04-21T08:10:58.410Z,13.62
2023-04-21T08:14:59.888Z,13.71
2023-04-21T08:19:01.391Z,13.94
2023-04-21T08:23:04.274Z,14.14
2023-04-21T08:27:05.888Z,14.46
2023-04-21T08:31:07.437Z,14.55
2023-04-21T08:35:09.631Z,14.57
2023-04-21T08:39:12.605Z,14.73
2023-04-21T08:43:14.058Z,14.85
2023-04-21T08:47:16.128Z,14.80
2023-04-21T08:51:22.100Z,15.02
2023-04-21T08:55:26.751Z,15.19
2023-04-21T08:59:28.170Z,15.29
2023-04-21T09:03:30.014Z,15.52
2023-04-21T09:07:33.032Z,15.66
2023-04-21T09:11:35.829Z,15.97
2023-04-21T09:15:40.433Z,15.92
2023-04-21T09:19:42.137Z,15.84
2023-04-21T09:23:45.334Z,16.14
2023-04-21T09:27:48.271Z,16.22
2023-04-21T09:31:50.084Z,16.08
2023-04-21T09:35:52.634Z,16.31
2023-04-21T09:40:04.271Z,16.30
2023-04-21T09:44:07.729Z,16.32
2023-04-21T09:48:10.228Z,16.65
2023-04-21T09:52:18.940Z,16.58
2023-04-21T09:56:21.855Z,16.48
2023-04-21T10:00:26.284Z,16.48
2023-04-21T10:04:29.336Z,16.24
2023-04-21T10:08:31.884Z,16.45
2023-04-21T10:12:33.768Z,16.70
2023-04-21T10:16:37.320Z,16.80
2023-04-21T10:20:51.114Z,17.38
2023-04-21T10:24:55.395Z,17.02
2023-04-21T10:28:58.725Z,17.33
2023-04-21T10:33:05.252Z,17.77
2023-04-21T10:37:22.034Z,17.93
2023-04-21T10:41:27.403Z,17.78
2023-04-21T10:45:28.764Z,17.87
2023-04-21T10:55:10.614Z,17.98
2023-04-21T10:59:12.480Z,18.21
2023-04-21T11:03:14.084Z,18.02
2023-04-21T11:07:17.005Z,17.92
2023-04-21T11:11:23.801Z,18.10
2023-04-21T11:15:25.393Z,17.72
2023-04-21T11:19:26.845Z,17.75
2023-04-21T11:23:28.277Z,17.77
2023-04-21T11:27:31.068Z,17.04
2023-04-21T11:31:33.232Z,16.91
2023-04-21T11:35:40.139Z,17.24
2023-04-21T11:39:41.742Z,16.95
2023-04-21T11:43:45.789Z,16.54
2023-04-21T11:47:48.234Z,17.31
2023-04-21T11:51:50.145Z,17.35
2023-04-21T11:55:51.638Z,17.66
2023-04-21T11:59:54.695Z,18.19
2023-04-21T12:03:56.428Z,18.83
2023-04-21T12:07:58.064Z,19.42
2023-04-21T12:11:59.492Z,19.15
2023-04-21T12:16:04.193Z,18.75
2023-04-21T12:20:07.385Z,19.22
2023-04-21T12:24:08.855Z,19.68
2023-04-21T12:28:11.030Z,19.82
2023-04-21T12:32:13.822Z,21.15
2023-04-21T12:36:15.351Z,23.31
2023-04-21T12:40:17.362Z,24.91
2023-04-21T12:44:18.890Z,24.57
2023-04-21T12:48:21.837Z,21.68
2023-04-21T12:52:23.310Z,21.86
2023-04-21T12:56:25.006Z,22.89
2023-04-21T13:00:26.439Z,24.39
2023-04-21T13:04:29.542Z,24.99
2023-04-21T13:08:31.213Z,22.31
2023-04-21T13:12:32.834Z,21.90
2023-04-21T13:16:34.357Z,22.64
2023-04-21T13:20:37.168Z,22.32
2023-04-21T13:24:38.624Z,22.53
2023-04-21T13:28:40.125Z,22.16
2023-04-21T13:32:42.297Z,21.83
2023-04-21T13:36:45.188Z,18.80
2023-04-21T13:40:46.658Z,19.05
2023-04-21T13:44:48.108Z,19.25
2023-04-21T13:48:49.654Z,19.19
2023-04-21T13:52:52.510Z,18.96
2023-04-21T13:56:54.278Z,17.86
2023-04-21T14:00:55.727Z,18.85
2023-04-21T14:04:57.399Z,18.59
2023-04-21T14:09:00.968Z,19.70
2023-04-21T14:13:03.135Z,21.08
2023-04-21T14:17:04.628Z,22.71
2023-04-21T14:21:06.334Z,20.39
2023-04-21T14:25:09.690Z,18.76
2023-04-21T14:29:11.157Z,17.83
2023-04-21T14:33:12.647Z,18.16
2023-04-21T14:37:14.168Z,17.80
2023-04-21T14:41:16.948Z,17.55
2023-04-21T14:45:18.398Z,17.59
2023-04-21T14:49:20.492Z,17.10
2023-04-21T14:53:21.935Z,16.84
2023-04-21T14:57:24.925Z,17.46
2023-04-21T15:01:26.614Z,17.93
2023-04-21T15:05:28.355Z,17.42
2023-04-21T15:09:29.833Z,17.36
2023-04-21T15:13:32.898Z,16.87
2023-04-21T15:17:34.430Z,16.89
2023-04-21T15:21:35.910Z,17.50
2023-04-21T15:25:37.364Z,17.85
2023-04-21T15:29:40.257Z,17.39
2023-04-21T15:33:41.747Z,17.03
2023-04-21T15:37:43.192Z,17.06
2023-04-21T15:41:44.646Z,16.96
2023-04-21T15:45:47.521Z,17.04
2023-04-21T15:49:49.003Z,17.16
2023-04-21T15:53:50.493Z,17.14
2023-04-21T15:57:51.944Z,16.92
2023-04-21T16:01:55.087Z,16.80
2023-04-21T16:05:56.956Z,16.77
2023-04-21T16:09:58.881Z,16.92
2023-04-21T16:14:00.440Z,16.96
2023-04-21T16:18:03.404Z,16.56
2023-04-21T16:22:04.895Z,16.41
2023-04-21T16:26:06.544Z,16.48
2023-04-21T16:30:08.775Z,16.60
2023-04-21T16:34:11.581Z,16.59
2023-04-21T16:38:13.060Z,16.33
2023-04-21T16:42:14.534Z,15.86
2023-04-21T16:46:16.144Z,15.73
2023-04-21T16:50:18.999Z,15.38
2023-04-21T16:54:20.438Z,15.38
2023-04-21T16:58:21.868Z,15.46
2023-04-21T17:02:23.477Z,15.17
2023-04-21T17:06:26.369Z,15.28
2023-04-21T17:10:27.904Z,14.98
2023-04-21T17:14:29.498Z,14.73
2023-04-21T17:18:30.940Z,14.83
2023-04-21T17:22:33.716Z,14.92
2023-04-21T17:26:35.379Z,14.45
2023-04-21T17:30:36.878Z,14.52
2023-04-21T17:34:38.640Z,14.38
2023-04-21T17:38:41.909Z,14.11
2023-04-21T17:42:43.346Z,13.90
2023-04-21T17:46:44.924Z,13.57
2023-04-21T17:50:46.615Z,13.74
2023-04-21T17:54:49.392Z,13.27
2023-04-21T17:58:50.862Z,13.10
2023-04-21T18:02:52.397Z,12.63
2023-04-21T18:06:53.894Z,12.63
2023-04-21T18:10:56.666Z,12.45
2023-04-21T18:14:58.112Z,12.13
2023-04-21T18:18:59.621Z,11.93
2023-04-21T18:23:01.130Z,11.88
2023-04-21T18:27:04.065Z,11.68
2023-04-21T18:31:05.706Z,11.36
2023-04-21T18:35:07.949Z,11.30
2023-04-21T18:39:09.548Z,11.46
2023-04-21T18:43:12.368Z,11.07
2023-04-21T18:47:13.930Z,10.92
2023-04-21T18:51:15.396Z,10.86
2023-04-21T18:55:17.188Z,10.76
2023-04-21T18:59:19.964Z,10.67
2023-04-21T19:03:21.687Z,10.51
2023-04-21T19:07:23.209Z,10.39
2023-04-21T19:11:24.726Z,10.34
2023-04-21T19:15:27.572Z,10.09
2023-04-21T19:19:29.021Z,9.99
2023-04-21T19:23:30.470Z,10.01
2023-04-21T19:27:32.015Z,9.76
2023-04-21T19:31:34.824Z,9.85
2023-04-21T19:35:36.306Z,9.78
2023-04-21T19:39:37.732Z,9.67
2023-04-21T19:43:39.158Z,9.56
2023-04-21T19:47:42.005Z,9.61
2023-04-21T19:51:43.464Z,9.48
2023-04-21T19:55:44.908Z,9.33
2023-04-21T19:59:46.410Z,9.25
2023-04-21T20:03:49.392Z,9.34
2023-04-21T20:07:50.964Z,9.48
2023-04-21T20:11:52.413Z,10.02
2023-04-21T20:15:53.944Z,10.37
2023-04-21T20:19:56.864Z,10.69
2023-04-21T20:23:58.306Z,10.80
2023-04-21T20:27:59.892Z,10.78
2023-04-21T20:32:01.388Z,10.84
2023-04-21T20:36:04.683Z,10.84
2023-04-21T20:40:07.230Z,10.59
2023-04-21T20:44:08.736Z,10.37
2023-04-21T20:48:10.187Z,10.39
2023-04-21T20:52:12.989Z,10.49
2023-04-21T20:56:14.446Z,10.51
2023-04-21T21:00:16.222Z,10.75
2023-04-21T21:04:17.998Z,10.91
2023-04-21T21:08:20.913Z,11.01
2023-04-21T21:12:22.506Z,11.23
2023-04-21T21:16:24.067Z,11.29
2023-04-21T21:20:25.706Z,11.36
2023-04-21T21:24:28.469Z,11.21
2023-04-21T21:28:29.975Z,10.95
2023-04-21T21:32:31.442Z,10.85
2023-04-21T21:36:33.044Z,10.73
2023-04-21T21:40:35.850Z,10.49
2023-04-21T21:44:37.295Z,10.20
2023-04-21T21:48:38.729Z,10.14
2023-04-21T21:52:40.239Z,10.13
2023-04-21T21:56:43.031Z,10.05
2023-04-21T22:00:44.537Z,9.85
2023-04-21T22:04:46.131Z,9.70
2023-04-21T22:08:47.637Z,9.68
2023-04-21T22:12:50.466Z,9.70
2023-04-21T22:16:51.946Z,9.64
2023-04-21T22:20:53.437Z,9.59
2023-04-21T22:24:54.877Z,9.39
2023-04-21T22:28:57.726Z,9.35
2023-04-21T22:32:59.236Z,9.35
2023-04-21T22:37:00.703Z,9.33
2023-04-21T22:41:02.156Z,9.32
2023-04-21T22:45:05.733Z,9.42
2023-04-21T22:49:07.245Z,9.52
2023-04-21T22:53:08.746Z,9.25
2023-04-21T22:57:10.252Z,9.10
2023-04-21T23:01:13.376Z,8.99
2023-04-21T23:05:14.851Z,9.21
2023-04-21T23:09:16.298Z,8.98
2023-04-21T23:13:17.971Z,8.98
2023-04-21T23:17:20.788Z,9.12
2023-04-21T23:21:22.302Z,9.09
2023-04-21T23:25:23.838Z,9.07
2023-04-21T23:29:25.365Z,9.29
2023-04-21T23:33:28.232Z,9.21
2023-04-21T23:37:29.660Z,9.27
2023-04-21T23:41:31.185Z,9.35
2023-04-21T23:45:32.826Z,9.41
2023-04-21T23:49:35.853Z,9.39
2023-04-21T23:53:37.622Z,9.42
2023-04-21T23:57:39.134Z,9.44
